createdAt,value
2023-01-09T00:01:22.861Z,7.82
2023-01-09T00:03:52.231Z,7.84
2023-01-09T00:06:22.033Z,7.84
2023-01-09T00:08:51.318Z,7.88
2023-01-09T00:11:21.264Z,7.85
2023-01-09T00:13:50.614Z,7.86
2023-01-09T00:16:21.842Z,7.85
2023-01-09T00:18:51.000Z,7.86
2023-01-09T00:21:20.873Z,7.88
2023-01-09T00:23:50.146Z,7.83
2023-01-09T00:26:20.140Z,7.81
2023-01-09T00:28:50.006Z,7.87
2023-01-09T00:31:19.843Z,7.83
2023-01-09T00:33:52.152Z,7.85
2023-01-09T00:36:21.690Z,7.78
2023-01-09T00:38:51.105Z,7.84
2023-01-09T00:41:21.160Z,7.84
2023-01-09T00:43:50.817Z,7.87
2023-01-09T00:46:20.467Z,7.87
2023-01-09T00:48:51.149Z,7.84
2023-01-09T00:51:20.844Z,7.78
2023-01-09T00:53:50.056Z,7.82
2023-01-09T00:56:20.132Z,7.78
2023-01-09T00:58:49.342Z,7.80
2023-01-09T01:01:19.127Z,7.83
2023-01-09T01:03:48.484Z,7.81
2023-01-09T01:06:36.971Z,7.78
2023-01-09T01:09:06.325Z,7.73
2023-01-09T01:11:36.089Z,7.76
2023-01-09T01:14:05.294Z,7.74
2023-01-09T01:16:34.896Z,7.74
2023-01-09T01:19:04.172Z,7.73
2023-01-09T01:21:35.246Z,7.71
2023-01-09T01:24:04.488Z,7.70
2023-01-09T01:26:34.044Z,7.65
2023-01-09T01:29:03.261Z,7.62
2023-01-09T01:31:32.824Z,7.65
2023-01-09T01:34:02.006Z,7.72
2023-01-09T01:36:31.555Z,7.74
2023-01-09T01:39:02.338Z,7.76
2023-01-09T01:41:32.016Z,7.74
2023-01-09T01:44:02.390Z,7.72
2023-01-09T01:46:32.412Z,7.74
2023-01-09T01:49:03.356Z,7.75
2023-01-09T01:51:33.525Z,7.71
2023-01-09T01:54:04.875Z,7.71
2023-01-09T01:56:36.878Z,7.66
2023-01-09T01:59:07.034Z,7.63
2023-01-09T02:01:38.626Z,7.63
2023-01-09T02:04:08.161Z,7.67
2023-01-09T02:06:37.785Z,7.62
2023-01-09T02:09:08.470Z,7.59
2023-01-09T02:11:38.119Z,7.64
2023-01-09T02:14:07.422Z,7.66
2023-01-09T02:16:39.872Z,7.62
2023-01-09T02:19:12.585Z,7.61
2023-01-09T02:21:44.112Z,7.64
2023-01-09T02:24:21.106Z,7.66
2023-01-09T02:26:59.366Z,7.66
2023-01-09T02:29:43.319Z,7.64
2023-01-09T02:32:15.984Z,7.62
2023-01-09T02:34:46.807Z,7.63
2023-01-09T02:37:19.527Z,7.61
2023-01-09T02:39:49.922Z,7.64
2023-01-09T02:42:20.473Z,7.61
2023-01-09T02:44:49.745Z,7.64
2023-01-09T02:47:40.310Z,7.60
2023-01-09T02:50:10.734Z,7.57
2023-01-09T02:52:45.401Z,7.60
2023-01-09T02:55:17.967Z,7.54
2023-01-09T02:57:51.310Z,7.59
2023-01-09T03:00:22.826Z,7.60
2023-01-09T03:02:54.160Z,7.60
2023-01-09T03:05:24.534Z,7.44
2023-01-09T03:07:56.897Z,7.53
2023-01-09T03:10:27.651Z,7.56
2023-01-09T03:12:59.009Z,7.58
2023-01-09T03:15:28.716Z,7.54
2023-01-09T03:18:00.128Z,7.55
2023-01-09T03:20:29.367Z,7.57
2023-01-09T03:22:59.653Z,7.57
2023-01-09T03:25:29.713Z,7.58
2023-01-09T03:27:59.825Z,7.53
2023-01-09T03:30:29.615Z,7.54
2023-01-09T03:33:00.685Z,7.56
2023-01-09T03:35:29.970Z,7.54
2023-01-09T03:38:00.338Z,7.55
2023-01-09T03:40:29.573Z,7.54
2023-01-09T03:42:59.175Z,7.48
2023-01-09T03:45:28.488Z,7.45
2023-01-09T03:47:59.616Z,7.50
2023-01-09T03:50:30.331Z,7.49
2023-01-09T03:52:59.868Z,7.49
2023-01-09T03:55:29.129Z,7.46
2023-01-09T03:57:58.739Z,7.44
2023-01-09T04:00:28.025Z,7.45
2023-01-09T04:02:57.602Z,7.46
2023-01-09T04:05:26.827Z,7.42
2023-01-09T04:07:57.876Z,7.47
2023-01-09T04:10:27.076Z,7.45
2023-01-09T04:12:56.791Z,7.46
2023-01-09T04:15:26.033Z,7.41
2023-01-09T04:17:55.741Z,7.45
2023-01-09T04:20:24.922Z,7.44
2023-01-09T04:22:54.511Z,7.46
2023-01-09T04:25:25.273Z,7.43
2023-01-09T04:27:54.893Z,7.45
2023-01-09T04:30:24.161Z,7.45
2023-01-09T04:32:53.801Z,7.42
2023-01-09T04:35:23.058Z,7.44
2023-01-09T04:37:52.632Z,7.42
2023-01-09T04:40:21.891Z,7.44
2023-01-09T04:42:52.965Z,7.41
2023-01-09T04:45:22.280Z,7.46
2023-01-09T04:47:51.919Z,7.47
2023-01-09T04:50:21.221Z,7.44
2023-01-09T04:52:50.789Z,7.42
2023-01-09T04:55:20.027Z,7.44
2023-01-09T04:57:49.588Z,7.39
2023-01-09T05:00:20.529Z,7.42
2023-01-09T05:02:50.126Z,7.44
2023-01-09T05:05:19.527Z,7.42
2023-01-09T05:07:49.401Z,7.43
2023-01-09T05:10:18.645Z,7.45
2023-01-09T05:12:48.171Z,7.46
2023-01-09T05:15:17.556Z,7.45
2023-01-09T05:17:48.496Z,7.47
2023-01-09T05:20:17.855Z,7.47
2023-01-09T05:22:49.533Z,7.47
2023-01-09T05:25:18.868Z,7.48
2023-01-09T05:27:48.386Z,7.48
2023-01-09T05:30:18.456Z,7.45
2023-01-09T05:32:49.661Z,7.46
2023-01-09T05:35:18.955Z,7.45
2023-01-09T05:37:48.562Z,7.45
2023-01-09T05:40:17.969Z,7.45
2023-01-09T05:42:47.517Z,7.44
2023-01-09T05:45:16.751Z,7.45
2023-01-09T05:47:46.565Z,7.42
2023-01-09T05:50:17.319Z,7.37
2023-01-09T05:52:46.878Z,7.38
2023-01-09T05:55:16.073Z,7.38
2023-01-09T05:57:45.656Z,7.42
2023-01-09T06:00:15.602Z,7.44
2023-01-09T06:02:45.213Z,7.43
2023-01-09T06:05:14.648Z,7.39
2023-01-09T06:07:45.601Z,7.37
2023-01-09T06:10:15.374Z,7.40
2023-01-09T06:12:48.192Z,7.40
2023-01-09T06:15:17.714Z,7.39
2023-01-09T06:17:47.275Z,7.39
2023-01-09T06:20:16.609Z,7.29
2023-01-09T06:22:47.612Z,7.30
2023-01-09T06:25:16.991Z,7.35
2023-01-09T06:27:46.629Z,7.36
2023-01-09T06:30:15.914Z,7.29
2023-01-09T06:37:12.001Z,7.29
2023-01-09T06:40:18.324Z,7.32
2023-01-09T06:43:04.717Z,7.32
2023-01-09T06:45:33.901Z,7.32
2023-01-09T06:48:03.571Z,7.27
2023-01-09T06:50:32.750Z,7.28
2023-01-09T06:53:02.368Z,7.27
2023-01-09T06:55:33.876Z,7.27
2023-01-09T06:58:04.951Z,7.23
2023-01-09T07:00:34.139Z,7.26
2023-01-09T07:03:03.797Z,7.27
2023-01-09T07:05:33.268Z,7.24
2023-01-09T07:08:02.915Z,7.24
2023-01-09T07:10:32.128Z,7.25
2023-01-09T07:13:01.727Z,7.17
2023-01-09T07:15:32.411Z,7.13
2023-01-09T07:18:01.976Z,7.12
2023-01-09T07:20:31.237Z,7.14
2023-01-09T07:23:00.855Z,7.06
2023-01-09T07:25:30.061Z,7.08
2023-01-09T07:27:59.677Z,7.06
2023-01-09T07:30:28.930Z,7.17
2023-01-09T07:33:01.507Z,7.17
2023-01-09T07:35:31.743Z,7.12
2023-01-09T07:38:01.340Z,7.17
2023-01-09T07:40:30.504Z,7.21
2023-01-09T07:43:00.123Z,7.17
2023-01-09T07:45:29.353Z,7.10
2023-01-09T07:48:00.362Z,7.07
2023-01-09T07:50:29.534Z,7.15
2023-01-09T07:52:59.164Z,7.12
2023-01-09T07:55:28.371Z,7.12
2023-01-09T07:57:57.955Z,7.17
2023-01-09T08:00:27.294Z,7.18
2023-01-09T08:02:56.945Z,7.16
2023-01-09T08:05:27.745Z,7.15
2023-01-09T08:07:57.310Z,7.15
2023-01-09T08:10:26.475Z,7.19
2023-01-09T08:12:56.028Z,7.14
2023-01-09T08:15:25.253Z,7.11
2023-01-09T08:17:54.855Z,7.02
2023-01-09T08:20:24.049Z,7.01
2023-01-09T08:22:55.491Z,7.11
2023-01-09T08:25:24.732Z,7.13
2023-01-09T08:27:54.317Z,7.15
2023-01-09T08:30:23.510Z,7.05
2023-01-09T08:32:53.434Z,6.99
2023-01-09T08:35:22.683Z,7.07
2023-01-09T08:37:52.321Z,7.03
2023-01-09T08:40:23.238Z,7.09
2023-01-09T08:43:10.203Z,7.13
2023-01-09T08:45:56.629Z,7.16
2023-01-09T08:48:26.165Z,6.89
2023-01-09T08:50:55.508Z,6.96
2023-01-09T08:53:25.079Z,7.00
2023-01-09T08:55:55.837Z,7.08
2023-01-09T08:58:25.451Z,7.01
2023-01-09T09:00:54.700Z,6.96
2023-01-09T09:03:24.267Z,7.00
2023-01-09T09:05:53.522Z,7.07
2023-01-09T09:08:23.045Z,7.09
2023-01-09T09:10:52.339Z,7.12
2023-01-09T09:13:23.414Z,7.15
2023-01-09T09:15:52.802Z,7.12
2023-01-09T09:18:22.414Z,7.08
2023-01-09T09:20:51.627Z,7.09
2023-01-09T09:23:22.832Z,7.07
2023-01-09T09:25:52.107Z,7.06
2023-01-09T09:28:22.121Z,7.02
2023-01-09T09:30:52.874Z,7.04
2023-01-09T09:33:22.436Z,7.02
2023-01-09T09:35:51.605Z,6.96
2023-01-09T09:38:21.272Z,6.94
2023-01-09T09:40:58.070Z,6.84
2023-01-09T09:43:58.083Z,6.85
2023-01-09T09:46:30.899Z,6.95
2023-01-09T09:49:01.094Z,7.01
2023-01-09T09:51:48.964Z,6.82
2023-01-09T09:54:20.063Z,6.73
2023-01-09T09:56:50.307Z,6.80
2023-01-09T09:59:20.121Z,6.80
2023-01-09T10:01:52.451Z,6.83
2023-01-09T10:04:22.184Z,6.66
2023-01-09T10:06:51.949Z,6.81
2023-01-09T10:09:25.119Z,6.78
2023-01-09T10:11:56.663Z,6.76
2023-01-09T10:14:26.262Z,6.80
2023-01-09T10:17:07.055Z,6.86
2023-01-09T10:19:39.178Z,6.91
2023-01-09T10:22:11.294Z,6.86
2023-01-09T10:24:47.548Z,6.81
2023-01-09T10:27:18.962Z,6.78
2023-01-09T10:29:54.623Z,6.86
2023-01-09T10:32:31.782Z,6.77
2023-01-09T10:35:05.136Z,6.85
2023-01-09T10:37:35.087Z,6.86
2023-01-09T10:40:05.712Z,6.91
2023-01-09T10:42:36.722Z,6.90
2023-01-09T10:45:08.042Z,6.84
2023-01-09T10:47:39.211Z,6.90
2023-01-09T10:50:17.372Z,6.87
2023-01-09T10:52:46.611Z,6.89
2023-01-09T10:55:19.442Z,6.87
2023-01-09T10:57:49.180Z,6.85
2023-01-09T11:00:21.652Z,6.87
2023-01-09T11:02:53.995Z,6.83
2023-01-09T11:05:24.548Z,6.74
2023-01-09T11:07:55.432Z,6.62
2023-01-09T11:10:25.114Z,6.68
2023-01-09T11:12:54.353Z,6.78
2023-01-09T11:15:30.260Z,6.76
2023-01-09T11:18:14.258Z,6.74
2023-01-09T11:20:45.320Z,6.76
2023-01-09T11:23:27.735Z,6.87
2023-01-09T11:25:57.884Z,6.86
2023-01-09T11:28:27.495Z,6.81
2023-01-09T11:30:57.752Z,6.93
2023-01-09T11:33:27.588Z,6.96
2023-01-09T11:36:08.377Z,6.92
2023-01-09T11:38:47.038Z,6.97
2023-01-09T11:41:18.438Z,7.02
2023-01-09T11:43:48.515Z,7.04
2023-01-09T11:46:46.002Z,7.06
2023-01-09T11:49:22.828Z,6.98
2023-01-09T11:52:11.042Z,6.90
2023-01-09T11:54:41.684Z,6.99
2023-01-09T11:57:11.759Z,6.98
2023-01-09T11:59:40.967Z,7.06
2023-01-09T12:02:24.783Z,7.03
2023-01-09T12:04:55.761Z,7.05
2023-01-09T12:07:29.118Z,7.04
2023-01-09T12:10:02.669Z,7.04
2023-01-09T12:12:32.671Z,7.09
2023-01-09T12:15:04.954Z,7.06
2023-01-09T12:17:47.779Z,7.10
2023-01-09T12:20:19.511Z,7.12
2023-01-09T12:22:50.950Z,7.04
2023-01-09T12:25:25.326Z,7.09
2023-01-09T12:27:58.521Z,7.05
2023-01-09T12:30:30.738Z,7.08
2023-01-09T12:33:04.635Z,7.06
2023-01-09T12:35:35.294Z,7.09
2023-01-09T12:38:09.180Z,7.09
2023-01-09T12:40:46.327Z,7.11
2023-01-09T12:43:18.810Z,7.15
2023-01-09T12:45:51.810Z,7.17
2023-01-09T12:48:25.832Z,7.16
2023-01-09T12:50:57.892Z,7.15
2023-01-09T12:53:27.775Z,7.17
2023-01-09T12:55:59.592Z,7.21
2023-01-09T12:58:33.679Z,7.18
2023-01-09T13:01:03.929Z,7.18
2023-01-09T13:03:34.243Z,7.22
2023-01-09T13:06:03.586Z,7.22
2023-01-09T13:08:33.492Z,7.23
2023-01-09T13:11:18.917Z,7.25
2023-01-09T13:13:50.501Z,7.21
2023-01-09T13:16:20.511Z,7.25
2023-01-09T13:18:51.513Z,7.21
2023-01-09T13:21:20.827Z,7.25
2023-01-09T13:23:51.133Z,7.28
2023-01-09T13:26:23.008Z,7.29
2023-01-09T13:28:53.622Z,7.24
2023-01-09T13:31:29.086Z,7.28
2023-01-09T13:33:58.811Z,7.33
2023-01-09T13:36:28.810Z,7.29
2023-01-09T13:38:58.569Z,7.32
2023-01-09T13:41:46.883Z,7.33
2023-01-09T13:44:23.692Z,7.32
2023-01-09T13:46:53.677Z,7.33
2023-01-09T13:49:50.052Z,7.35
2023-01-09T13:52:39.851Z,7.35
2023-01-09T13:55:25.162Z,7.37
2023-01-09T13:58:15.171Z,7.38
2023-01-09T14:00:53.899Z,7.38
2023-01-09T14:03:27.513Z,7.38
2023-01-09T14:06:07.377Z,7.38
2023-01-09T14:08:36.596Z,7.38
2023-01-09T14:11:06.657Z,7.39
2023-01-09T14:13:39.450Z,7.39
2023-01-09T14:16:16.713Z,7.37
2023-01-09T14:18:49.743Z,7.41
2023-01-09T14:21:19.409Z,7.39
2023-01-09T14:23:53.372Z,7.41
2023-01-09T14:26:25.290Z,7.40
2023-01-09T14:28:54.839Z,7.43
2023-01-09T14:31:32.488Z,7.44
2023-01-09T14:34:23.770Z,7.42
2023-01-09T14:37:00.776Z,7.42
2023-01-09T14:39:30.209Z,7.42
2023-01-09T14:42:05.818Z,7.44
2023-01-09T14:44:37.240Z,7.45
2023-01-09T14:47:08.503Z,7.47
2023-01-09T14:49:39.051Z,7.47
2023-01-09T14:52:09.882Z,7.46
2023-01-09T14:54:39.783Z,7.50
2023-01-09T14:57:24.281Z,7.49
2023-01-09T14:59:57.009Z,7.52
2023-01-09T15:02:28.269Z,7.52
2023-01-09T15:04:58.674Z,7.55
2023-01-09T15:07:34.414Z,7.55
2023-01-09T15:10:03.691Z,7.55
2023-01-09T15:12:33.414Z,7.56
2023-01-09T15:15:03.180Z,7.56
2023-01-09T15:17:35.901Z,7.57
2023-01-09T15:20:06.697Z,7.55
2023-01-09T15:22:37.041Z,7.56
2023-01-09T15:25:30.528Z,7.54
2023-01-09T15:28:04.223Z,7.57
2023-01-09T15:30:35.532Z,7.58
2023-01-09T15:33:08.731Z,7.56
2023-01-09T15:35:38.204Z,7.59
2023-01-09T15:38:07.744Z,7.61
2023-01-09T15:40:37.024Z,7.61
2023-01-09T15:43:05.544Z,7.60
2023-01-09T15:45:35.963Z,7.61
2023-01-09T15:48:24.131Z,7.60
2023-01-09T15:58:56.182Z,7.60
2023-01-09T16:01:31.891Z,7.61
2023-01-09T16:04:07.145Z,7.59
2023-01-09T16:06:37.490Z,7.59
2023-01-09T16:09:06.819Z,7.60
2023-01-09T16:11:37.262Z,7.58
2023-01-09T16:14:12.109Z,7.59
2023-01-09T16:16:41.868Z,7.58
2023-01-09T16:19:26.242Z,7.59
2023-01-09T16:21:59.576Z,7.58
2023-01-09T16:24:29.156Z,7.58
2023-01-09T16:27:13.523Z,7.57
2023-01-09T16:29:47.538Z,7.59
2023-01-09T16:32:19.580Z,7.56
2023-01-09T16:34:49.719Z,7.58
2023-01-09T16:37:20.788Z,7.56
2023-01-09T16:40:08.847Z,7.58
2023-01-09T16:42:55.857Z,7.59
2023-01-09T16:45:28.490Z,7.57
2023-01-09T16:47:58.342Z,7.58
2023-01-09T16:50:27.694Z,7.59
2023-01-09T16:52:58.717Z,7.56
2023-01-09T16:55:28.037Z,7.56
2023-01-09T16:57:57.642Z,7.56
2023-01-09T17:00:27.189Z,7.58
2023-01-09T17:02:58.400Z,7.57
2023-01-09T17:05:27.718Z,7.56
2023-01-09T17:07:58.734Z,7.57
2023-01-09T17:10:28.157Z,7.56
2023-01-09T17:12:57.760Z,7.56
2023-01-09T17:15:26.942Z,7.55
2023-01-09T17:17:58.355Z,7.57
2023-01-09T17:20:29.907Z,7.57
2023-01-09T17:23:00.922Z,7.57
2023-01-09T17:25:47.572Z,7.58
2023-01-09T17:28:36.231Z,7.57
2023-01-09T17:31:06.844Z,7.58
2023-01-09T17:33:36.707Z,7.59
2023-01-09T17:36:06.306Z,7.58
2023-01-09T17:38:37.633Z,7.58
2023-01-09T17:41:06.926Z,7.57
2023-01-09T17:43:36.864Z,7.56
2023-01-09T17:46:06.370Z,7.58
2023-01-09T17:48:36.096Z,7.56
2023-01-09T17:51:05.483Z,7.58
2023-01-09T17:53:35.079Z,7.58
2023-01-09T17:56:06.279Z,7.58
2023-01-09T17:58:35.910Z,7.59
2023-01-09T18:01:05.246Z,7.60
2023-01-09T18:03:34.864Z,7.57
2023-01-09T18:06:04.203Z,7.60
2023-01-09T18:08:33.898Z,7.59
2023-01-09T18:11:03.582Z,7.60
2023-01-09T18:13:34.912Z,7.58
2023-01-09T18:16:04.286Z,7.59
2023-01-09T18:18:33.931Z,7.60
2023-01-09T18:21:05.187Z,7.60
2023-01-09T18:23:34.799Z,7.59
2023-01-09T18:26:06.272Z,7.63
2023-01-09T18:28:38.633Z,7.60
2023-01-09T18:31:07.990Z,7.59
2023-01-09T18:33:37.563Z,7.60
2023-01-09T18:36:07.181Z,7.60
2023-01-09T18:38:36.749Z,7.62
2023-01-09T18:41:06.240Z,7.61
2023-01-09T18:43:35.854Z,7.60
2023-01-09T18:46:09.506Z,7.62
2023-01-09T18:48:39.119Z,7.61
2023-01-09T18:51:08.548Z,7.62
2023-01-09T18:53:38.105Z,7.63
2023-01-09T18:56:07.624Z,7.63
2023-01-09T18:58:37.208Z,7.62
2023-01-09T19:01:06.684Z,7.62
2023-01-09T19:03:37.875Z,7.62
2023-01-09T19:06:07.472Z,7.63
2023-01-09T19:08:37.132Z,7.64
2023-01-09T19:11:06.534Z,7.63
2023-01-09T19:13:36.970Z,7.63
2023-01-09T19:16:06.791Z,7.64
2023-01-09T19:18:38.622Z,7.66
2023-01-09T19:21:12.558Z,7.66
2023-01-09T19:23:42.525Z,7.65
2023-01-09T19:26:15.870Z,7.64
2023-01-09T19:28:46.819Z,7.65
2023-01-09T19:31:16.274Z,7.63
2023-01-09T19:33:47.489Z,7.64
2023-01-09T19:36:16.795Z,7.64
2023-01-09T19:38:46.378Z,7.65
2023-01-09T19:41:19.378Z,7.65
2023-01-09T19:43:49.267Z,7.64
2023-01-09T19:46:19.377Z,7.62
2023-01-09T19:48:50.723Z,7.62
2023-01-09T19:51:21.074Z,7.63
2023-01-09T19:53:53.565Z,7.62
2023-01-09T19:56:23.429Z,7.61
2023-01-09T19:58:53.557Z,7.62
2023-01-09T20:01:24.852Z,7.64
2023-01-09T20:03:56.600Z,7.62
2023-01-09T20:06:27.802Z,7.63
2023-01-09T20:08:57.957Z,7.65
2023-01-09T20:11:28.282Z,7.62
2023-01-09T20:13:58.018Z,7.62
2023-01-09T20:16:28.284Z,7.61
2023-01-09T20:18:59.888Z,7.63
2023-01-09T20:21:29.710Z,7.62
2023-01-09T20:24:00.196Z,7.60
2023-01-09T20:26:30.061Z,7.61
2023-01-09T20:28:59.854Z,7.60
2023-01-09T20:31:31.461Z,7.58
2023-01-09T20:34:02.777Z,7.58
2023-01-09T20:36:32.546Z,7.59
2023-01-09T20:39:03.319Z,7.60
2023-01-09T20:41:32.630Z,7.59
2023-01-09T20:44:03.293Z,7.59
2023-01-09T20:46:34.938Z,7.59
2023-01-09T20:49:07.644Z,7.59
2023-01-09T20:51:37.329Z,7.60
2023-01-09T20:54:06.910Z,7.59
2023-01-09T20:56:36.382Z,7.59
2023-01-09T20:59:06.533Z,7.60
2023-01-09T21:01:35.941Z,7.58
2023-01-09T21:04:08.884Z,7.57
2023-01-09T21:06:38.702Z,7.46
2023-01-09T21:09:08.367Z,7.44
2023-01-09T21:11:37.724Z,7.44
2023-01-09T21:14:07.308Z,7.41
2023-01-09T21:16:36.700Z,7.41
2023-01-09T21:19:07.945Z,7.34
2023-01-09T21:21:37.616Z,7.35
2023-01-09T21:24:08.303Z,7.38
2023-01-09T21:26:37.551Z,7.33
2023-01-09T21:29:08.463Z,7.36
2023-01-09T21:31:38.636Z,7.35
2023-01-09T21:34:09.875Z,7.41
2023-01-09T21:36:39.197Z,7.44
2023-01-09T21:39:08.972Z,7.45
2023-01-09T21:41:55.573Z,7.45
2023-01-09T21:44:42.588Z,7.49
2023-01-09T21:47:11.900Z,7.40
2023-01-09T21:49:43.604Z,7.41
2023-01-09T21:52:13.843Z,7.33
2023-01-09T21:54:43.548Z,7.30
2023-01-09T21:57:13.113Z,7.20
2023-01-09T21:59:42.743Z,7.26
2023-01-09T22:02:12.238Z,7.38
2023-01-09T22:04:43.371Z,7.36
2023-01-09T22:07:12.728Z,7.35
2023-01-09T22:09:44.212Z,7.34
2023-01-09T22:12:13.770Z,7.30
2023-01-09T22:14:43.235Z,7.36
2023-01-09T22:17:12.653Z,7.37
2023-01-09T22:19:43.721Z,7.36
2023-01-09T22:22:13.033Z,7.40
2023-01-09T22:24:42.632Z,7.34
2023-01-09T22:27:11.827Z,7.42
2023-01-09T22:29:41.421Z,7.45
2023-01-09T22:32:10.607Z,7.47
2023-01-09T22:34:40.422Z,7.45
2023-01-09T22:37:11.219Z,7.45
2023-01-09T22:39:40.884Z,7.39
2023-01-09T22:42:10.160Z,7.40
2023-01-09T22:44:39.845Z,7.43
2023-01-09T22:47:09.100Z,7.45
2023-01-09T22:49:52.396Z,7.49
2023-01-09T22:52:23.960Z,7.48
2023-01-09T22:54:53.535Z,7.47
2023-01-09T22:57:22.724Z,7.38
2023-01-09T22:59:52.343Z,7.34
2023-01-09T23:02:21.725Z,7.24
2023-01-09T23:05:27.316Z,7.36
2023-01-09T23:08:16.801Z,7.49
2023-01-09T23:10:46.079Z,7.52
2023-01-09T23:13:14.920Z,7.55
2023-01-09T23:15:44.246Z,7.55
2023-01-09T23:18:13.423Z,7.39
2023-01-09T23:20:42.931Z,7.26
2023-01-09T23:23:11.995Z,7.21
2023-01-09T23:25:42.891Z,7.22
2023-01-09T23:28:12.007Z,7.10
2023-01-09T23:30:41.451Z,7.34
2023-01-09T23:33:10.512Z,7.40
2023-01-09T23:35:40.053Z,7.10
2023-01-09T23:38:11.268Z,7.10
2023-01-09T23:40:41.485Z,7.39
2023-01-09T23:43:11.394Z,7.21
2023-01-09T23:45:41.859Z,7.27
2023-01-09T23:48:12.437Z,7.33
2023-01-09T23:50:44.835Z,7.21
2023-01-09T23:53:13.936Z,7.19
2023-01-09T23:55:43.423Z,6.99
2023-01-09T23:58:13.968Z,6.97
